Time;durP1;ratioP1;P1;durP2;ratioP2;P2;SDS_P1;SDS_P2;PMS_P1;PMS_P2;Temp;Humidity;BMP_temperature;BMP_pressure;BME280_temperature;BME280_humidity;BME280_pressure;Samples;Min_cycle;Max_cycle;Signal;HPM_P1;HPM_P2
2021/12/28 00:01:13;;;;;;;43.88;6.20;;;11.30;99.90;;;;;;5095277;28;20051;-73
2021/12/28 00:03:42;;;;;;;36.72;5.68;;;11.20;99.90;;;;;;5093499;28;20024;-73
2021/12/28 00:06:08;;;;;;;36.80;5.15;;;11.20;99.90;;;;;;5091059;28;20036;-73
2021/12/28 00:08:35;;;;;;;32.53;6.05;;;11.20;99.90;;;;;;5084387;28;20017;-73
2021/12/28 00:11:02;;;;;;;44.35;5.50;;;11.20;99.90;;;;;;5083673;28;20020;-73
2021/12/28 00:13:30;;;;;;;34.55;4.80;;;11.30;99.90;;;;;;5085131;28;20021;-73
2021/12/28 00:18:41;;;;;;;32.40;4.80;;;11.40;99.90;;;;;;5084017;28;20012;-73
2021/12/28 00:21:07;;;;;;;40.20;5.50;;;11.40;99.90;;;;;;5083531;28;20207;-74
2021/12/28 00:23:39;;;;;;;39.05;4.88;;;11.40;99.90;;;;;;5084972;28;20028;-74
2021/12/28 00:26:07;;;;;;;31.77;5.25;;;11.40;99.90;;;;;;5068033;28;20066;-72
2021/12/28 00:28:33;;;;;;;37.47;6.15;;;11.40;99.90;;;;;;5084597;28;20048;-75
2021/12/28 00:30:59;;;;;;;36.63;4.82;;;11.40;99.90;;;;;;5082521;28;20020;-73
2021/12/28 00:33:26;;;;;;;38.35;5.10;;;11.40;99.90;;;;;;5084471;28;20074;-73
2021/12/28 00:35:52;;;;;;;22.98;4.20;;;11.40;99.90;;;;;;5083660;28;20059;-73
2021/12/28 00:38:22;;;;;;;26.67;4.45;;;11.40;99.90;;;;;;5066720;28;20039;-73
2021/12/28 00:40:51;;;;;;;22.23;5.05;;;11.40;99.90;;;;;;5083428;28;20027;-72
2021/12/28 00:43:17;;;;;;;22.85;4.72;;;11.40;99.90;;;;;;5084534;28;20016;-72
2021/12/28 00:45:44;;;;;;;25.23;4.25;;;11.40;99.90;;;;;;5083377;28;20051;-74
2021/12/28 00:48:09;;;;;;;13.88;2.63;;;11.40;99.90;;;;;;5082514;28;20297;-72
2021/12/28 00:50:36;;;;;;;19.75;3.47;;;11.40;99.90;;;;;;5084124;28;20025;-71
2021/12/28 00:53:02;;;;;;;16.40;2.90;;;11.30;99.90;;;;;;5083454;28;20203;-73
2021/12/28 00:55:28;;;;;;;13.40;2.17;;;11.30;99.90;;;;;;5084398;28;20322;-72
2021/12/28 00:57:54;;;;;;;17.08;2.65;;;11.30;99.90;;;;;;5066576;28;20088;-73
2021/12/28 01:00:24;;;;;;;10.63;2.17;;;11.30;99.90;;;;;;5082808;28;20091;-74
2021/12/28 01:02:50;;;;;;;11.57;1.95;;;11.20;99.90;;;;;;5082690;28;20033;-74
2021/12/28 01:05:16;;;;;;;17.15;2.03;;;11.20;99.90;;;;;;5083830;28;20223;-74
2021/12/28 01:07:42;;;;;;;12.32;2.08;;;11.20;99.90;;;;;;5083867;28;20315;-72
2021/12/28 01:10:12;;;;;;;15.27;2.25;;;11.20;99.90;;;;;;5084070;28;20058;-73
2021/12/28 01:12:38;;;;;;;14.55;2.13;;;11.20;99.90;;;;;;5083885;28;20083;-73
2021/12/28 01:15:06;;;;;;;14.07;2.25;;;11.20;99.90;;;;;;5084482;28;20066;-74
2021/12/28 01:17:33;;;;;;;11.48;1.95;;;11.20;99.90;;;;;;5082995;28;20028;-72
2021/12/28 01:19:59;;;;;;;8.13;1.85;;;11.20;99.90;;;;;;5084001;28;20044;-73
2021/12/28 01:22:25;;;;;;;16.40;2.42;;;11.20;99.90;;;;;;5083691;28;20023;-73
2021/12/28 01:24:51;;;;;;;12.02;2.10;;;11.20;99.90;;;;;;5084241;28;20059;-73
2021/12/28 01:27:17;;;;;;;12.90;1.70;;;11.20;99.90;;;;;;5083998;28;20074;-73
2021/12/28 01:29:42;;;;;;;12.57;2.13;;;11.20;99.90;;;;;;5082282;28;20080;-73
2021/12/28 01:32:08;;;;;;;11.95;1.80;;;11.10;99.90;;;;;;5081382;28;20027;-73
2021/12/28 01:34:35;;;;;;;10.70;2.00;;;11.10;99.90;;;;;;5083887;28;20021;-72
2021/12/28 01:37:01;;;;;;;9.02;1.73;;;11.00;99.90;;;;;;5083029;28;20073;-76
2021/12/28 01:39:27;;;;;;;13.75;2.05;;;10.80;99.90;;;;;;5083945;28;20020;-74
2021/12/28 01:41:53;;;;;;;11.35;2.00;;;10.70;99.90;;;;;;5083629;28;20020;-74
2021/12/28 01:44:18;;;;;;;10.25;1.80;;;10.50;99.90;;;;;;5082791;28;20024;-74
2021/12/28 01:46:44;;;;;;;11.48;2.05;;;10.50;99.90;;;;;;5083425;28;20028;-73
2021/12/28 01:49:10;;;;;;;10.50;1.58;;;10.30;99.90;;;;;;5083867;28;20046;-73
2021/12/28 01:51:37;;;;;;;15.90;2.00;;;10.30;99.90;;;;;;5083316;28;20292;-73
2021/12/28 01:54:05;;;;;;;10.43;1.67;;;10.30;99.90;;;;;;5083776;28;20055;-73
2021/12/28 01:56:40;;;;;;;10.15;1.75;;;10.30;99.90;;;;;;5083931;28;20024;-73
2021/12/28 01:59:08;;;;;;;8.75;2.00;;;10.30;99.90;;;;;;5067931;28;20027;-73
2021/12/28 02:01:34;;;;;;;9.40;1.40;;;10.40;99.90;;;;;;5087143;28;20012;-74
2021/12/28 02:04:01;;;;;;;7.00;1.65;;;10.50;99.90;;;;;;5087460;28;20058;-73
2021/12/28 02:06:27;;;;;;;9.88;1.67;;;10.70;99.90;;;;;;5087518;28;20048;-73
2021/12/28 02:08:54;;;;;;;5.28;1.23;;;10.80;99.90;;;;;;5087499;28;20051;-73
2021/12/28 02:11:20;;;;;;;5.30;1.40;;;10.80;99.90;;;;;;5086088;28;20213;-74
2021/12/28 02:13:47;;;;;;;5.90;1.50;;;10.80;99.90;;;;;;5087273;28;20039;-74
2021/12/28 02:16:12;;;;;;;5.85;1.35;;;10.80;99.90;;;;;;5087633;28;20030;-73
2021/12/28 02:18:38;;;;;;;5.50;1.10;;;10.80;99.90;;;;;;5087402;28;20025;-74
2021/12/28 02:21:06;;;;;;;6.80;1.20;;;10.80;99.90;;;;;;5087168;28;20021;-73
2021/12/28 02:23:33;;;;;;;3.03;1.30;;;10.80;99.90;;;;;;5087126;28;20192;-73
2021/12/28 02:25:59;;;;;;;2.13;0.63;;;10.90;99.90;;;;;;5086175;28;20040;-73
2021/12/28 02:28:25;;;;;;;1.33;0.40;;;10.80;99.90;;;;;;5085871;28;20227;-73
2021/12/28 02:30:54;;;;;;;2.00;0.50;;;10.80;99.90;;;;;;5086470;28;20021;-73
2021/12/28 02:33:23;;;;;;;2.55;0.45;;;10.80;99.90;;;;;;5083973;28;20021;-74
2021/12/28 02:35:49;;;;;;;2.20;0.60;;;10.80;99.90;;;;;;5087023;28;20032;-75
2021/12/28 02:38:15;;;;;;;2.67;0.40;;;10.80;99.90;;;;;;5086829;28;20024;-73
2021/12/28 02:40:43;;;;;;;1.00;0.30;;;10.80;99.90;;;;;;5085650;28;20223;-73
2021/12/28 02:43:12;;;;;;;2.17;0.20;;;10.70;99.90;;;;;;5085783;28;20020;-73
2021/12/28 02:45:47;;;;;;;1.95;0.50;;;10.70;99.90;;;;;;5085710;28;20024;-74
2021/12/28 02:48:13;;;;;;;4.75;0.38;;;10.70;99.90;;;;;;5085759;28;20028;-73
2021/12/28 02:50:43;;;;;;;2.55;0.88;;;10.60;99.90;;;;;;5068990;28;20070;-73
2021/12/28 02:53:11;;;;;;;1.50;0.70;;;10.60;99.90;;;;;;5085163;28;20043;-73
2021/12/28 02:55:38;;;;;;;1.95;0.50;;;10.60;99.90;;;;;;5085763;28;20043;-73
2021/12/28 02:58:07;;;;;;;2.00;0.47;;;10.50;99.90;;;;;;5068933;28;20025;-74
2021/12/28 03:00:38;;;;;;;7.05;0.70;;;10.60;99.90;;;;;;5068823;28;20027;-73
2021/12/28 03:03:06;;;;;;;2.75;0.77;;;10.50;99.90;;;;;;5087616;28;20039;-73
2021/12/28 03:05:33;;;;;;;1.63;0.50;;;10.50;99.90;;;;;;5066175;28;20025;-73
2021/12/28 03:07:59;;;;;;;5.03;1.05;;;10.50;99.90;;;;;;5098746;28;20038;-73
2021/12/28 03:10:24;;;;;;;1.70;0.50;;;10.50;99.90;;;;;;5096729;28;20017;-72
2021/12/28 03:12:50;;;;;;;1.70;0.50;;;10.50;99.90;;;;;;5094075;28;20024;-74
2021/12/28 03:15:16;;;;;;;1.08;0.57;;;10.50;99.90;;;;;;5089273;28;20027;-72
2021/12/28 03:17:42;;;;;;;2.60;0.70;;;10.50;99.90;;;;;;5086235;28;20292;-73
2021/12/28 03:20:12;;;;;;;3.85;1.00;;;10.50;99.90;;;;;;5086146;28;20211;-73
2021/12/28 03:22:38;;;;;;;4.80;0.93;;;10.50;99.90;;;;;;5085128;28;20024;-74
2021/12/28 03:25:05;;;;;;;7.70;1.13;;;10.50;99.90;;;;;;5086036;28;20251;-73
2021/12/28 03:27:31;;;;;;;4.63;1.10;;;10.50;99.90;;;;;;5086055;28;20032;-73
2021/12/28 03:29:57;;;;;;;4.05;1.30;;;10.50;99.90;;;;;;5084506;28;20093;-73
2021/12/28 03:32:22;;;;;;;4.30;0.98;;;10.50;99.90;;;;;;5085457;28;20062;-73
2021/12/28 03:34:48;;;;;;;4.63;0.82;;;10.50;99.90;;;;;;5084244;28;20053;-73
2021/12/28 03:37:14;;;;;;;4.70;1.20;;;10.50;99.90;;;;;;5085998;28;20349;-74
2021/12/28 03:39:39;;;;;;;6.30;1.27;;;10.50;99.90;;;;;;5085847;28;20024;-73
2021/12/28 03:42:05;;;;;;;6.22;1.92;;;10.50;99.90;;;;;;5084689;28;20020;-73
2021/12/28 03:44:32;;;;;;;6.40;1.75;;;10.50;99.90;;;;;;5084478;28;20047;-72
2021/12/28 03:46:57;;;;;;;7.32;1.83;;;10.50;99.90;;;;;;5085398;28;20020;-73
2021/12/28 03:49:23;;;;;;;9.13;1.83;;;10.50;99.90;;;;;;5085610;28;20092;-73
2021/12/28 03:51:49;;;;;;;8.40;2.25;;;10.50;99.90;;;;;;5085585;28;20039;-74
2021/12/28 03:54:15;;;;;;;9.80;2.80;;;10.50;99.90;;;;;;5085047;28;20065;-73
2021/12/28 03:56:40;;;;;;;3.97;1.00;;;10.50;99.90;;;;;;5085562;28;20039;-73
2021/12/28 03:59:06;;;;;;;9.27;1.63;;;10.50;99.90;;;;;;5085420;28;20296;-72
2021/12/28 04:01:32;;;;;;;7.90;1.67;;;10.50;99.90;;;;;;5084945;28;20024;-73
2021/12/28 04:03:57;;;;;;;7.40;1.65;;;10.50;99.90;;;;;;5084914;28;20027;-73
2021/12/28 04:06:23;;;;;;;7.38;1.85;;;10.40;99.90;;;;;;5084212;28;20044;-73
2021/12/28 04:08:50;;;;;;;3.85;1.55;;;10.40;99.90;;;;;;5085221;28;20318;-73
2021/12/28 04:11:30;;;;;;;6.65;2.05;;;10.40;99.90;;;;;;5083971;28;20253;-73
2021/12/28 04:14:01;;;;;;;9.15;1.92;;;10.40;99.90;;;;;;5085145;28;20130;-73
2021/12/28 04:16:27;;;;;;;8.38;1.50;;;10.50;99.90;;;;;;5083440;28;20207;-73
2021/12/28 04:18:53;;;;;;;7.72;1.95;;;10.50;99.90;;;;;;5085252;28;20340;-73
2021/12/28 04:21:19;;;;;;;3.08;0.70;;;10.50;99.90;;;;;;5084834;28;20215;-73
2021/12/28 04:23:46;;;;;;;4.88;0.65;;;10.50;99.90;;;;;;5084355;28;20024;-73
2021/12/28 04:26:11;;;;;;;7.63;1.13;;;10.50;99.90;;;;;;5083505;28;20096;-72
2021/12/28 04:28:37;;;;;;;5.10;0.88;;;10.50;99.90;;;;;;5083705;28;20048;-73
2021/12/28 04:31:03;;;;;;;4.40;0.70;;;10.60;99.90;;;;;;5084125;28;20211;-73
2021/12/28 04:33:29;;;;;;;5.97;1.25;;;10.50;99.90;;;;;;5084744;28;20012;-72
2021/12/28 04:35:55;;;;;;;8.73;1.17;;;10.60;99.90;;;;;;5082358;28;20024;-74
2021/12/28 04:38:21;;;;;;;6.93;1.10;;;10.60;99.90;;;;;;5084712;28;20036;-73
2021/12/28 04:40:47;;;;;;;9.93;1.10;;;10.60;99.90;;;;;;5084630;28;20021;-74
2021/12/28 04:43:13;;;;;;;6.95;1.02;;;10.60;99.90;;;;;;5084693;28;20031;-73
2021/12/28 04:45:39;;;;;;;7.95;0.90;;;10.60;99.90;;;;;;5084151;28;20016;-75
2021/12/28 04:48:06;;;;;;;7.65;0.88;;;10.60;99.90;;;;;;5084399;28;20031;-73
2021/12/28 04:50:38;;;;;;;6.72;1.05;;;10.60;99.90;;;;;;5084345;28;20029;-73
2021/12/28 04:53:09;;;;;;;7.40;0.90;;;10.60;99.90;;;;;;5084575;28;20249;-73
2021/12/28 04:55:35;;;;;;;10.57;1.40;;;10.60;99.90;;;;;;5084248;28;20028;-73
2021/12/28 04:58:01;;;;;;;11.25;1.58;;;10.50;99.90;;;;;;5084416;28;20036;-74
2021/12/28 05:00:26;;;;;;;10.05;1.58;;;10.50;99.90;;;;;;5082685;28;20028;-73
2021/12/28 05:02:52;;;;;;;15.70;1.80;;;10.50;99.90;;;;;;5084351;28;20020;-73
2021/12/28 05:05:18;;;;;;;12.07;1.50;;;10.50;99.90;;;;;;5084091;28;20024;-74
2021/12/28 05:07:44;;;;;;;8.48;1.75;;;10.50;99.90;;;;;;5083056;28;20082;-74
2021/12/28 05:10:10;;;;;;;13.00;1.70;;;10.50;99.90;;;;;;5084092;28;20223;-73
2021/12/28 05:12:36;;;;;;;10.70;2.13;;;10.50;99.90;;;;;;5084155;28;20031;-74
2021/12/28 05:15:04;;;;;;;14.93;1.65;;;10.60;99.90;;;;;;5082742;28;20028;-73
2021/12/28 05:17:30;;;;;;;8.18;1.30;;;10.50;99.90;;;;;;5083110;28;20021;-73
2021/12/28 05:19:56;;;;;;;8.73;1.70;;;10.50;99.90;;;;;;5084067;28;20247;-74
2021/12/28 05:22:22;;;;;;;7.30;1.55;;;10.50;99.90;;;;;;5084110;28;20025;-73
2021/12/28 05:24:48;;;;;;;8.40;1.50;;;10.50;99.90;;;;;;5084240;28;20256;-74
2021/12/28 05:27:14;;;;;;;4.72;0.95;;;10.50;99.90;;;;;;5083887;28;20040;-73
2021/12/28 05:29:40;;;;;;;8.82;0.90;;;10.60;99.90;;;;;;5082525;28;20052;-73
2021/12/28 05:32:07;;;;;;;4.88;0.75;;;10.50;99.90;;;;;;5082419;28;20020;-73
2021/12/28 05:34:32;;;;;;;4.13;0.80;;;10.50;99.90;;;;;;5086875;28;20091;-72
2021/12/28 05:36:58;;;;;;;5.47;0.85;;;10.50;99.90;;;;;;5090561;28;20028;-73
2021/12/28 05:39:24;;;;;;;5.63;0.85;;;10.50;99.90;;;;;;5090587;28;20024;-72
2021/12/28 05:41:49;;;;;;;4.75;0.93;;;10.50;99.90;;;;;;5090661;28;20028;-73
2021/12/28 05:44:17;;;;;;;2.92;0.55;;;10.40;99.90;;;;;;5090560;28;20159;-72
2021/12/28 05:46:45;;;;;;;3.25;0.40;;;10.40;99.90;;;;;;5090112;28;20030;-72
2021/12/28 05:49:10;;;;;;;2.42;0.45;;;10.40;99.90;;;;;;5090389;28;20035;-73
2021/12/28 05:51:36;;;;;;;5.28;1.80;;;10.40;99.90;;;;;;5090467;28;20024;-72
2021/12/28 05:54:02;;;;;;;7.97;1.42;;;10.40;99.90;;;;;;5090481;28;20024;-73
2021/12/28 05:56:28;;;;;;;13.65;1.85;;;10.30;99.90;;;;;;5089187;28;20043;-73
2021/12/28 05:58:54;;;;;;;20.58;1.80;;;10.20;99.90;;;;;;5090222;28;20062;-73
2021/12/28 06:01:19;;;;;;;17.10;1.92;;;10.20;99.90;;;;;;5088747;28;20020;-75
2021/12/28 06:03:45;;;;;;;15.85;2.15;;;10.20;99.90;;;;;;5090379;28;20027;-73
2021/12/28 06:06:11;;;;;;;23.13;3.72;;;10.10;99.90;;;;;;5090257;28;20024;-73
2021/12/28 06:08:36;;;;;;;31.13;2.50;;;10.10;99.90;;;;;;5090191;28;20036;-73
2021/12/28 06:11:05;;;;;;;45.60;5.65;;;10.10;99.90;;;;;;5093058;28;20044;-74
2021/12/28 06:13:31;;;;;;;26.30;3.78;;;10.10;99.90;;;;;;5103196;28;20020;-74
2021/12/28 06:15:57;;;;;;;23.38;3.28;;;10.10;99.90;;;;;;5102177;28;20047;-74
2021/12/28 06:18:23;;;;;;;24.77;2.85;;;10.10;99.90;;;;;;5100047;28;20020;-75
2021/12/28 06:20:48;;;;;;;35.30;3.80;;;10.10;99.90;;;;;;5097870;28;20043;-74
2021/12/28 06:23:14;;;;;;;33.65;4.05;;;10.20;99.90;;;;;;5092786;28;20024;-75
2021/12/28 06:25:40;;;;;;;36.47;3.90;;;10.10;99.90;;;;;;5090262;28;20280;-74
2021/12/28 06:28:06;;;;;;;43.33;4.70;;;10.10;99.90;;;;;;5072107;28;20092;-74
2021/12/28 06:30:33;;;;;;;34.95;4.47;;;10.00;99.90;;;;;;5089486;28;20028;-74
2021/12/28 06:32:59;;;;;;;38.85;5.25;;;10.00;99.90;;;;;;5089927;28;20043;-74
2021/12/28 06:35:25;;;;;;;34.05;4.80;;;10.00;99.90;;;;;;5088637;28;20040;-74
2021/12/28 06:37:50;;;;;;;37.00;3.83;;;10.00;99.90;;;;;;5090057;28;20023;-74
2021/12/28 06:40:16;;;;;;;45.22;5.65;;;10.10;99.90;;;;;;5090106;28;20066;-74
2021/12/28 06:42:42;;;;;;;37.30;5.03;;;10.20;99.90;;;;;;5090077;28;20092;-74
2021/12/28 06:45:08;;;;;;;51.25;6.13;;;10.20;99.90;;;;;;5087749;28;20024;-72
2021/12/28 06:47:34;;;;;;;41.85;5.30;;;10.10;99.90;;;;;;5086412;28;20091;-72
2021/12/28 06:50:00;;;;;;;9.85;1.65;;;9.80;99.90;;;;;;5086754;28;20051;-72
2021/12/28 06:52:26;;;;;;;32.78;4.50;;;9.60;99.90;;;;;;5086459;28;20050;-71
2021/12/28 06:54:51;;;;;;;30.50;3.72;;;9.50;99.90;;;;;;5086844;28;20047;-73
2021/12/28 06:57:17;;;;;;;23.98;3.40;;;9.40;99.90;;;;;;5086518;28;20092;-72
2021/12/28 06:59:45;;;;;;;31.98;3.97;;;9.30;99.90;;;;;;5086518;28;20031;-72
2021/12/28 07:02:11;;;;;;;29.90;4.35;;;9.30;99.90;;;;;;5085253;28;20032;-73
2021/12/28 07:04:37;;;;;;;35.78;5.20;;;9.30;99.90;;;;;;5085526;28;20052;-73
2021/12/28 07:07:04;;;;;;;39.83;5.38;;;9.30;99.90;;;;;;5086226;28;20031;-73
2021/12/28 07:09:30;;;;;;;39.85;4.45;;;9.30;99.90;;;;;;5085291;28;20086;-73
2021/12/28 07:11:56;;;;;;;41.40;7.35;;;9.30;99.90;;;;;;5086370;28;20193;-73
2021/12/28 07:14:21;;;;;;;49.67;6.75;;;9.20;99.90;;;;;;5086265;28;20044;-73
2021/12/28 07:16:47;;;;;;;35.00;4.53;;;9.30;99.90;;;;;;5085153;28;20070;-73
2021/12/28 07:19:13;;;;;;;44.03;5.35;;;9.30;99.90;;;;;;5086173;28;20028;-73
2021/12/28 07:21:40;;;;;;;28.88;5.03;;;9.50;99.90;;;;;;5085985;28;20048;-73
2021/12/28 07:24:07;;;;;;;44.15;5.60;;;9.60;99.90;;;;;;5085139;28;20023;-74
2021/12/28 07:26:33;;;;;;;25.80;2.67;;;9.60;99.90;;;;;;5086238;28;20081;-74
2021/12/28 07:28:59;;;;;;;39.78;4.43;;;9.70;99.90;;;;;;5085508;28;20042;-75
2021/12/28 07:31:25;;;;;;;30.08;4.25;;;9.80;99.90;;;;;;5085537;28;20028;-74
2021/12/28 07:33:51;;;;;;;22.33;3.42;;;9.80;99.90;;;;;;5085975;28;20300;-73
2021/12/28 07:36:18;;;;;;;21.33;3.78;;;9.80;99.90;;;;;;5084137;28;20062;-74
2021/12/28 07:38:43;;;;;;;22.65;3.78;;;9.90;99.90;;;;;;5084675;28;20234;-73
2021/12/28 07:41:09;;;;;;;22.08;3.13;;;9.90;99.90;;;;;;5085890;28;20094;-74
2021/12/28 07:43:35;;;;;;;19.40;2.78;;;9.80;99.90;;;;;;5085434;28;20024;-74
2021/12/28 07:46:00;;;;;;;15.73;2.88;;;9.70;99.90;;;;;;5085381;28;20036;-74
2021/12/28 07:48:26;;;;;;;18.33;2.80;;;9.70;99.90;;;;;;5085589;28;20051;-73
2021/12/28 07:50:52;;;;;;;18.67;3.40;;;9.70;99.90;;;;;;5085425;28;20313;-74
2021/12/28 07:53:18;;;;;;;21.95;2.95;;;9.70;99.90;;;;;;5085384;28;20039;-74
2021/12/28 07:55:43;;;;;;;25.48;3.67;;;9.80;99.90;;;;;;5084642;28;20062;-73
2021/12/28 07:58:09;;;;;;;24.13;2.90;;;9.80;99.90;;;;;;5083746;28;20032;-73
2021/12/28 08:00:35;;;;;;;26.75;4.35;;;9.80;99.90;;;;;;5084994;28;20036;-73
2021/12/28 08:03:04;;;;;;;34.97;3.63;;;9.80;99.90;;;;;;5085531;28;20017;-73
2021/12/28 08:05:30;;;;;;;37.88;4.70;;;9.70;99.90;;;;;;5085072;28;20323;-73
2021/12/28 08:07:55;;;;;;;26.00;2.97;;;9.60;99.90;;;;;;5084768;28;20028;-73
2021/12/28 08:10:21;;;;;;;23.38;2.72;;;9.50;99.90;;;;;;5085166;28;20027;-73
2021/12/28 08:12:49;;;;;;;24.80;3.05;;;9.40;99.90;;;;;;5085127;28;20027;-73
2021/12/28 08:15:15;;;;;;;21.92;2.55;;;9.20;99.90;;;;;;5085073;28;20032;-75
2021/12/28 08:17:41;;;;;;;11.85;2.33;;;9.10;99.90;;;;;;5067475;28;20025;-72
2021/12/28 08:20:09;;;;;;;17.23;1.70;;;9.00;99.90;;;;;;5083747;28;20028;-72
2021/12/28 08:22:36;;;;;;;13.13;1.95;;;8.90;99.90;;;;;;5067309;28;20020;-73
2021/12/28 08:25:03;;;;;;;16.50;1.25;;;8.80;99.90;;;;;;5067464;28;20073;-70
2021/12/28 08:27:28;;;;;;;18.27;1.70;;;8.80;99.90;;;;;;5084797;28;20033;-72
2021/12/28 08:29:56;;;;;;;11.07;1.20;;;8.70;99.90;;;;;;5082898;28;20354;-72
2021/12/28 08:32:22;;;;;;;20.02;1.60;;;8.60;99.90;;;;;;5083204;28;20032;-72
2021/12/28 08:34:48;;;;;;;22.92;2.45;;;8.60;99.90;;;;;;5084750;28;20413;-71
2021/12/28 08:37:14;;;;;;;20.38;2.30;;;8.60;99.90;;;;;;5081885;28;20033;-71
2021/12/28 08:39:40;;;;;;;17.98;3.33;;;8.60;99.90;;;;;;5083378;28;20096;-72
2021/12/28 08:42:06;;;;;;;21.90;2.60;;;8.60;99.90;;;;;;5083277;28;20334;-70
2021/12/28 08:44:32;;;;;;;22.35;2.92;;;8.70;99.90;;;;;;5084453;28;20020;-70
2021/12/28 08:46:58;;;;;;;32.95;3.72;;;8.60;99.90;;;;;;5084335;28;20028;-72
2021/12/28 08:49:25;;;;;;;50.05;3.25;;;8.60;99.90;;;;;;5083203;28;20020;-72
2021/12/28 08:51:52;;;;;;;33.58;4.78;;;8.60;99.90;;;;;;5084595;28;20252;-71
2021/12/28 08:54:18;;;;;;;47.47;4.78;;;8.60;99.90;;;;;;5084387;28;20025;-69
2021/12/28 08:56:44;;;;;;;35.75;4.18;;;8.60;99.90;;;;;;5084526;28;20024;-71
2021/12/28 08:59:10;;;;;;;48.28;5.43;;;8.70;99.90;;;;;;5084030;28;20023;-72
2021/12/28 09:01:36;;;;;;;46.42;4.43;;;8.80;99.90;;;;;;5083704;28;20020;-70
2021/12/28 09:04:02;;;;;;;29.15;3.70;;;9.00;99.90;;;;;;5084313;28;20020;-71
2021/12/28 09:06:27;;;;;;;28.00;4.03;;;9.30;99.90;;;;;;5084277;28;20200;-71
2021/12/28 09:08:53;;;;;;;25.95;3.03;;;9.50;99.90;;;;;;5083240;28;20039;-70
2021/12/28 09:11:19;;;;;;;32.50;4.10;;;9.60;99.90;;;;;;5084102;28;20080;-70
2021/12/28 09:13:45;;;;;;;32.35;5.05;;;9.70;99.90;;;;;;5082965;28;20215;-69
2021/12/28 09:16:11;;;;;;;35.20;4.68;;;9.70;99.90;;;;;;5084251;28;20047;-69
2021/12/28 09:18:37;;;;;;;31.85;4.25;;;9.70;99.90;;;;;;5090298;28;20063;-68
2021/12/28 09:21:02;;;;;;;35.38;4.18;;;9.70;99.90;;;;;;5095162;28;20027;-69
2021/12/28 09:23:29;;;;;;;45.15;5.43;;;9.70;99.90;;;;;;5093377;28;20016;-70
2021/12/28 09:25:54;;;;;;;37.47;4.72;;;9.70;99.90;;;;;;5092131;28;20030;-70
2021/12/28 09:28:21;;;;;;;40.28;5.35;;;9.70;99.90;;;;;;5089518;28;20064;-71
2021/12/28 09:30:47;;;;;;;43.20;5.80;;;9.70;99.90;;;;;;5082065;28;20016;-73
2021/12/28 09:33:12;;;;;;;37.08;4.78;;;9.70;99.90;;;;;;5084056;28;20062;-70
2021/12/28 09:35:39;;;;;;;58.60;5.63;;;9.70;99.90;;;;;;5082947;28;20024;-71
2021/12/28 09:38:05;;;;;;;52.65;6.43;;;9.70;99.90;;;;;;5082618;28;20033;-71
2021/12/28 09:40:34;;;;;;;20.42;4.43;;;9.70;99.90;;;;;;5082892;28;20048;-69
2021/12/28 09:43:01;;;;;;;41.72;5.75;;;9.70;99.90;;;;;;5082819;28;20029;-71
2021/12/28 09:45:28;;;;;;;55.95;6.57;;;9.70;99.90;;;;;;5083750;28;20206;-72
2021/12/28 09:47:54;;;;;;;59.92;8.13;;;9.70;99.90;;;;;;5083726;28;20028;-72
2021/12/28 09:50:20;;;;;;;45.25;6.20;;;9.70;99.90;;;;;;5082544;28;20025;-72
2021/12/28 09:52:48;;;;;;;47.30;6.20;;;9.70;99.90;;;;;;5082802;28;20024;-71
2021/12/28 09:55:16;;;;;;;38.50;4.97;;;9.80;99.90;;;;;;5083903;28;20013;-72
2021/12/28 09:57:41;;;;;;;51.15;6.20;;;9.80;99.90;;;;;;5082860;28;20255;-71
2021/12/28 10:00:09;;;;;;;45.28;6.38;;;9.70;99.90;;;;;;5082978;28;20024;-69
2021/12/28 10:02:36;;;;;;;35.92;5.32;;;9.80;99.90;;;;;;5083865;28;20047;-70
2021/12/28 10:05:08;;;;;;;54.67;7.20;;;9.80;99.90;;;;;;5083649;28;20017;-71
2021/12/28 10:07:37;;;;;;;36.00;5.00;;;9.80;99.90;;;;;;5083744;28;20016;-71
2021/12/28 10:10:06;;;;;;;50.17;6.05;;;9.80;99.90;;;;;;5082317;28;20051;-71
2021/12/28 10:12:38;;;;;;;39.58;4.85;;;9.90;99.90;;;;;;5082668;28;20315;-70
2021/12/28 10:15:09;;;;;;;34.13;4.82;;;9.90;99.90;;;;;;5083551;28;20337;-71
2021/12/28 10:17:36;;;;;;;36.58;4.93;;;9.90;99.90;;;;;;5082629;28;20028;-71
2021/12/28 10:20:13;;;;;;;27.58;4.68;;;9.90;99.90;;;;;;5082018;28;20027;-72
2021/12/28 10:23:02;;;;;;;33.05;5.00;;;10.00;99.90;;;;;;5086248;28;20155;-70
2021/12/28 10:25:38;;;;;;;41.25;4.82;;;10.00;99.90;;;;;;5086274;28;20025;-70
2021/12/28 10:28:08;;;;;;;43.85;6.32;;;10.10;99.90;;;;;;5085696;28;20086;-72
2021/12/28 10:30:39;;;;;;;47.85;6.78;;;10.10;99.90;;;;;;5086608;28;20028;-72
2021/12/28 10:33:07;;;;;;;;;;;10.10;99.90;;;;;;5086310;28;20048;-70
2021/12/28 10:35:36;;;;;;;41.67;5.65;;;10.10;99.90;;;;;;5087131;28;19904;-72
2021/12/28 10:38:06;;;;;;;32.70;5.97;;;10.10;99.90;;;;;;5085943;28;20242;-72
2021/12/28 10:40:37;;;;;;;36.25;6.20;;;10.10;99.90;;;;;;5085113;28;20052;-71
2021/12/28 10:43:13;;;;;;;40.60;4.85;;;10.10;99.90;;;;;;5085634;28;20025;-72
2021/12/28 10:45:49;;;;;;;35.65;5.47;;;10.10;99.90;;;;;;5087042;28;20016;-70
2021/12/28 10:48:22;;;;;;;50.15;6.55;;;10.10;99.90;;;;;;5086604;28;20268;-72
2021/12/28 10:50:50;;;;;;;40.55;4.75;;;10.00;99.90;;;;;;5085548;28;20036;-72
2021/12/28 10:53:23;;;;;;;43.53;5.45;;;10.00;99.90;;;;;;5085739;28;20016;-73
2021/12/28 10:55:55;;;;;;;35.72;5.22;;;10.10;99.90;;;;;;5085666;28;20020;-72
2021/12/28 10:58:23;;;;;;;34.78;5.10;;;10.20;99.90;;;;;;5085562;28;20300;-72
2021/12/28 11:00:49;;;;;;;44.08;6.05;;;10.20;99.90;;;;;;5086116;28;20249;-72
2021/12/28 11:03:18;;;;;;;30.38;5.82;;;10.20;99.90;;;;;;5085567;28;20203;-73
2021/12/28 11:05:47;;;;;;;43.28;5.90;;;10.30;99.90;;;;;;5086542;28;20300;-73
2021/12/28 11:08:14;;;;;;;34.17;4.55;;;10.30;99.90;;;;;;5086287;28;20376;-71
2021/12/28 11:10:43;;;;;;;26.90;4.13;;;10.30;99.90;;;;;;5085005;28;20099;-72
2021/12/28 11:13:12;;;;;;;39.33;4.80;;;10.30;99.90;;;;;;5085244;28;20021;-73
2021/12/28 11:15:41;;;;;;;43.83;4.00;;;10.30;99.90;;;;;;5085333;28;20016;-72
2021/12/28 11:18:30;;;;;;;27.15;4.20;;;10.30;99.90;;;;;;5085116;28;20307;-73
2021/12/28 11:20:59;;;;;;;30.67;4.88;;;10.30;99.90;;;;;;5085251;28;20261;-73
2021/12/28 11:23:27;;;;;;;31.85;4.03;;;10.30;99.90;;;;;;5085116;28;20028;-72
2021/12/28 11:26:14;;;;;;;32.88;4.07;;;10.40;99.90;;;;;;5086164;28;20084;-73
2021/12/28 11:28:41;;;;;;;29.13;4.43;;;10.40;99.90;;;;;;5084750;28;20107;-74
2021/12/28 11:31:15;;;;;;;30.25;4.28;;;10.50;99.90;;;;;;5084710;28;20017;-72
2021/12/28 11:34:03;;;;;;;29.20;4.13;;;10.50;99.90;;;;;;5084733;28;20273;-72
2021/12/28 11:36:34;;;;;;;26.42;3.83;;;10.50;99.90;;;;;;5085194;28;20321;-73
2021/12/28 11:39:03;;;;;;;26.15;3.42;;;10.50;99.90;;;;;;5084957;28;20089;-73
2021/12/28 11:41:29;;;;;;;28.35;3.30;;;10.50;99.90;;;;;;5082842;28;20032;-73
2021/12/28 11:43:56;;;;;;;14.73;2.60;;;10.50;99.90;;;;;;5085788;28;20070;-73
2021/12/28 11:46:22;;;;;;;20.27;3.38;;;10.50;99.90;;;;;;5085428;28;20020;-72
2021/12/28 11:48:49;;;;;;;21.17;3.28;;;10.40;99.90;;;;;;5084771;28;20088;-73
2021/12/28 11:51:15;;;;;;;19.67;3.00;;;10.40;99.90;;;;;;5085440;28;20035;-73
2021/12/28 11:53:46;;;;;;;12.98;2.55;;;10.40;99.90;;;;;;5084507;28;20028;-74
2021/12/28 11:56:15;;;;;;;21.83;4.05;;;10.40;99.90;;;;;;5068336;28;20016;-75
2021/12/28 11:59:03;;;;;;;24.52;3.13;;;10.40;99.90;;;;;;5068061;28;20039;-74
2021/12/28 12:01:57;;;;;;;21.27;3.42;;;10.40;99.90;;;;;;5083807;28;20255;-75
2021/12/28 12:04:47;;;;;;;17.15;2.90;;;10.50;99.90;;;;;;5084600;28;20030;-74
2021/12/28 12:07:21;;;;;;;22.10;3.75;;;10.50;99.90;;;;;;5084525;28;20028;-73
2021/12/28 12:10:08;;;;;;;15.13;3.22;;;10.50;99.90;;;;;;5085348;28;20043;-73
2021/12/28 12:12:55;;;;;;;22.13;3.35;;;10.50;99.90;;;;;;5084067;28;20016;-72
2021/12/28 12:15:24;;;;;;;18.13;3.60;;;10.50;99.90;;;;;;5070608;28;20077;-74
2021/12/28 12:17:55;;;;;;;12.18;2.08;;;10.60;99.90;;;;;;5091864;28;20020;-72
2021/12/28 12:20:29;;;;;;;20.37;3.20;;;10.60;99.90;;;;;;5091920;28;20032;-71
2021/12/28 12:23:12;;;;;;;19.27;3.17;;;10.70;99.90;;;;;;5091107;28;20123;-73
2021/12/28 12:26:00;;;;;;;17.88;2.78;;;10.70;99.90;;;;;;5089899;28;20047;-73
2021/12/28 12:28:40;;;;;;;12.98;2.30;;;10.70;99.90;;;;;;5074961;28;20048;-73
2021/12/28 12:31:10;;;;;;;14.85;2.83;;;10.80;99.90;;;;;;5089048;28;20020;-73
2021/12/28 12:33:43;;;;;;;24.98;3.63;;;10.80;99.90;;;;;;5090387;28;20020;-73
2021/12/28 12:36:19;;;;;;;10.30;2.03;;;10.90;99.90;;;;;;5087395;28;20036;-72
2021/12/28 12:38:46;;;;;;;11.98;2.33;;;10.90;99.90;;;;;;5087754;28;20012;-73
2021/12/28 12:41:17;;;;;;;8.20;1.70;;;10.90;99.90;;;;;;5083633;28;20079;-72
2021/12/28 12:43:46;;;;;;;14.02;2.55;;;11.00;99.90;;;;;;5082617;28;20032;-73
2021/12/28 12:46:33;;;;;;;10.23;2.03;;;11.10;99.90;;;;;;5084320;28;20028;-73
2021/12/28 12:49:03;;;;;;;11.20;2.28;;;11.10;99.90;;;;;;5084450;28;20028;-74